NSZ3084 EKCH-EKYT
Flight info
| Callsign | NSZ3084 |
|---|---|
| Flight time | 0h 32m |
| Altitude | 18000 |
| Route | GOLGA DCT AAL |
| Aircraft | B738/M-SDE2E3FGHIRWXY/LB1 |
Departure
| Time | 2026-04-25 11:32 |
|---|---|
| Airport | Copenhagen Kastrup Airport (EKCH) |
Arrival
| Time | 2026-04-25 12:04 |
|---|---|
| Airport | Aalborg Airport (EKYT) |
| Time | Latitude | Longitude | Altitude | Speed | Heading |
|---|---|---|---|---|---|
| 2026-04-25 11:14 | 55.62900 | 12.63623 | 16 ft | 0 kts | 42° |
| 2026-04-25 11:24 | 55.62901 | 12.63626 | 16 ft | 1 kts | 49° |
| 2026-04-25 11:25 | 55.62902 | 12.63638 | 16 ft | 2 kts | 82° |
| 2026-04-25 11:25 | 55.62879 | 12.63680 | 17 ft | 11 kts | 133° |
| 2026-04-25 11:25 | 55.62837 | 12.63866 | 16 ft | 20 kts | 104° |
| 2026-04-25 11:25 | 55.62772 | 12.63954 | 16 ft | 12 kts | 204° |
| 2026-04-25 11:26 | 55.62702 | 12.63876 | 19 ft | 12 kts | 213° |
| 2026-04-25 11:26 | 55.62656 | 12.63839 | 16 ft | 4 kts | 203° |
| 2026-04-25 11:26 | 55.62665 | 12.63801 | 16 ft | 4 kts | 316° |
| 2026-04-25 11:26 | 55.62667 | 12.63795 | 16 ft | 4 kts | 302° |
| 2026-04-25 11:27 | 55.62667 | 12.63784 | 18 ft | 4 kts | 272° |
| 2026-04-25 11:28 | 55.62649 | 12.63746 | 16 ft | 2 kts | 213° |
| 2026-04-25 11:28 | 55.62624 | 12.63719 | 16 ft | 0 kts | 210° |
| 2026-04-25 11:28 | 55.62622 | 12.63716 | 16 ft | 4 kts | 222° |
| 2026-04-25 11:28 | 55.62637 | 12.63671 | 16 ft | 5 kts | 340° |
| 2026-04-25 11:29 | 55.62662 | 12.63680 | 16 ft | 4 kts | 36° |
| 2026-04-25 11:29 | 55.62667 | 12.63783 | 18 ft | 15 kts | 102° |
| 2026-04-25 11:29 | 55.62607 | 12.63972 | 17 ft | 21 kts | 123° |
| 2026-04-25 11:29 | 55.62516 | 12.64217 | 16 ft | 27 kts | 123° |
| 2026-04-25 11:30 | 55.62400 | 12.64445 | 16 ft | 20 kts | 169° |
| 2026-04-25 11:30 | 55.62269 | 12.64389 | 15 ft | 19 kts | 195° |
| 2026-04-25 11:30 | 55.62146 | 12.64298 | 16 ft | 19 kts | 207° |
| 2026-04-25 11:30 | 55.62013 | 12.64188 | 17 ft | 24 kts | 205° |
| 2026-04-25 11:31 | 55.61848 | 12.64072 | 16 ft | 27 kts | 181° |
| 2026-04-25 11:31 | 55.61670 | 12.64088 | 20 ft | 25 kts | 180° |
| 2026-04-25 11:31 | 55.61598 | 12.64031 | 20 ft | 0 kts | 220° |
| 2026-04-25 11:31 | 55.61573 | 12.63994 | 19 ft | 31 kts | 221° |
| 2026-04-25 11:32 | 55.61137 | 12.63318 | 21 ft | 132 kts | 223° |
| 2026-04-25 11:32 | 55.60283 | 12.61984 | 425 ft | 184 kts | 230° |
| 2026-04-25 11:32 | 55.59301 | 12.60376 | 1553 ft | 191 kts | 231° |
| 2026-04-25 11:32 | 55.58308 | 12.58863 | 2848 ft | 194 kts | 229° |
| 2026-04-25 11:33 | 55.57216 | 12.57223 | 3262 ft | 216 kts | 228° |
| 2026-04-25 11:33 | 55.56181 | 12.55221 | 3523 ft | 227 kts | 252° |
| 2026-04-25 11:33 | 55.55993 | 12.52492 | 4101 ft | 229 kts | 277° |
| 2026-04-25 11:33 | 55.56220 | 12.49698 | 5032 ft | 229 kts | 282° |
| 2026-04-25 11:34 | 55.56493 | 12.46932 | 6020 ft | 229 kts | 282° |
| 2026-04-25 11:34 | 55.56763 | 12.44151 | 6900 ft | 231 kts | 282° |
| 2026-04-25 11:34 | 55.57026 | 12.41348 | 7811 ft | 231 kts | 282° |
| 2026-04-25 11:34 | 55.57284 | 12.38536 | 8698 ft | 233 kts | 282° |
| 2026-04-25 11:35 | 55.57596 | 12.35732 | 9577 ft | 233 kts | 291° |
| 2026-04-25 11:35 | 55.58460 | 12.33287 | 10244 ft | 244 kts | 310° |
| 2026-04-25 11:35 | 55.59873 | 12.31320 | 10426 ft | 276 kts | 326° |
| 2026-04-25 11:35 | 55.61822 | 12.30278 | 10627 ft | 311 kts | 344° |
| 2026-04-25 11:36 | 55.64038 | 12.29840 | 11021 ft | 327 kts | 347° |
| 2026-04-25 11:36 | 55.66329 | 12.29474 | 11685 ft | 333 kts | 347° |
| 2026-04-25 11:36 | 55.67860 | 12.29231 | 12214 ft | 334 kts | 347° |
| 2026-04-25 11:36 | 55.70178 | 12.28841 | 13045 ft | 337 kts | 347° |
| 2026-04-25 11:37 | 55.72525 | 12.28416 | 13805 ft | 341 kts | 346° |
| 2026-04-25 11:37 | 55.74896 | 12.27974 | 14520 ft | 344 kts | 346° |
| 2026-04-25 11:37 | 55.77264 | 12.27412 | 15265 ft | 341 kts | 339° |
| 2026-04-25 11:37 | 55.79426 | 12.25844 | 16020 ft | 333 kts | 325° |
| 2026-04-25 11:38 | 55.81420 | 12.23754 | 16793 ft | 334 kts | 323° |
| 2026-04-25 11:38 | 55.83422 | 12.21569 | 17263 ft | 344 kts | 322° |
| 2026-04-25 11:38 | 55.85489 | 12.19301 | 17740 ft | 353 kts | 322° |
| 2026-04-25 11:38 | 55.87594 | 12.17009 | 17843 ft | 358 kts | 323° |
| 2026-04-25 11:39 | 55.89743 | 12.14684 | 17857 ft | 364 kts | 323° |
| 2026-04-25 11:39 | 55.91919 | 12.12341 | 17858 ft | 366 kts | 323° |
| 2026-04-25 11:39 | 55.94093 | 12.10010 | 17838 ft | 365 kts | 323° |
| 2026-04-25 11:39 | 55.96265 | 12.07678 | 17848 ft | 364 kts | 323° |
| 2026-04-25 11:40 | 55.98433 | 12.05347 | 17853 ft | 364 kts | 323° |
| 2026-04-25 11:40 | 56.00600 | 12.03012 | 17885 ft | 364 kts | 323° |
| 2026-04-25 11:40 | 56.02772 | 12.00668 | 17855 ft | 364 kts | 323° |
| 2026-04-25 11:40 | 56.04943 | 11.98359 | 17829 ft | 363 kts | 324° |
| 2026-04-25 11:41 | 56.07138 | 11.96124 | 17829 ft | 363 kts | 324° |
| 2026-04-25 11:41 | 56.09339 | 11.93914 | 17832 ft | 362 kts | 324° |
| 2026-04-25 11:41 | 56.11535 | 11.91710 | 17835 ft | 361 kts | 324° |
| 2026-04-25 11:41 | 56.13726 | 11.89501 | 17849 ft | 361 kts | 324° |
| 2026-04-25 11:42 | 56.15913 | 11.87286 | 17846 ft | 362 kts | 324° |
| 2026-04-25 11:42 | 56.18102 | 11.85061 | 17832 ft | 362 kts | 324° |
| 2026-04-25 11:42 | 56.20293 | 11.82827 | 17833 ft | 362 kts | 324° |
| 2026-04-25 11:42 | 56.22483 | 11.80591 | 17833 ft | 362 kts | 324° |
| 2026-04-25 11:43 | 56.24675 | 11.78349 | 17833 ft | 362 kts | 324° |
| 2026-04-25 11:43 | 56.26867 | 11.76106 | 17833 ft | 363 kts | 324° |
| 2026-04-25 11:43 | 56.29060 | 11.73858 | 17883 ft | 363 kts | 324° |
| 2026-04-25 11:43 | 56.31252 | 11.71609 | 17832 ft | 363 kts | 324° |
| 2026-04-25 11:44 | 56.33366 | 11.69175 | 17821 ft | 357 kts | 315° |
| 2026-04-25 11:44 | 56.35061 | 11.65985 | 17835 ft | 351 kts | 307° |
| 2026-04-25 11:44 | 56.36624 | 11.62597 | 17827 ft | 351 kts | 307° |
| 2026-04-25 11:44 | 56.38186 | 11.59208 | 17827 ft | 352 kts | 307° |
| 2026-04-25 11:45 | 56.39730 | 11.55862 | 17825 ft | 352 kts | 307° |
| 2026-04-25 11:45 | 56.41301 | 11.52467 | 17824 ft | 352 kts | 307° |
| 2026-04-25 11:45 | 56.42870 | 11.49086 | 17819 ft | 352 kts | 307° |
| 2026-04-25 11:45 | 56.44442 | 11.45699 | 17822 ft | 351 kts | 307° |
| 2026-04-25 11:46 | 56.46014 | 11.42312 | 17822 ft | 351 kts | 307° |
| 2026-04-25 11:46 | 56.47584 | 11.38928 | 17822 ft | 352 kts | 307° |
| 2026-04-25 11:46 | 56.49155 | 11.35539 | 17822 ft | 352 kts | 307° |
| 2026-04-25 11:46 | 56.50727 | 11.32145 | 17821 ft | 352 kts | 307° |
| 2026-04-25 11:47 | 56.52296 | 11.28751 | 17822 ft | 351 kts | 307° |
| 2026-04-25 11:47 | 56.53863 | 11.25359 | 17822 ft | 351 kts | 307° |
| 2026-04-25 11:47 | 56.55431 | 11.21957 | 17817 ft | 351 kts | 307° |
| 2026-04-25 11:47 | 56.56997 | 11.18558 | 17817 ft | 351 kts | 307° |
| 2026-04-25 11:48 | 56.58560 | 11.15158 | 17821 ft | 351 kts | 307° |
| 2026-04-25 11:48 | 56.60126 | 11.11749 | 17821 ft | 351 kts | 307° |
| 2026-04-25 11:48 | 56.61687 | 11.08345 | 17869 ft | 351 kts | 307° |
| 2026-04-25 11:48 | 56.63237 | 11.04962 | 17836 ft | 341 kts | 307° |
| 2026-04-25 11:49 | 56.64711 | 11.01747 | 17801 ft | 323 kts | 307° |
| 2026-04-25 11:49 | 56.66130 | 10.98644 | 17414 ft | 314 kts | 307° |
| 2026-04-25 11:49 | 56.67519 | 10.95599 | 16937 ft | 310 kts | 307° |
| 2026-04-25 11:49 | 56.68880 | 10.92610 | 16417 ft | 305 kts | 307° |
| 2026-04-25 11:50 | 56.70223 | 10.89656 | 15893 ft | 301 kts | 307° |
| 2026-04-25 11:50 | 56.71548 | 10.86737 | 15387 ft | 298 kts | 307° |
| 2026-04-25 11:50 | 56.72864 | 10.83836 | 14883 ft | 295 kts | 307° |
| 2026-04-25 11:50 | 56.74167 | 10.80961 | 14388 ft | 293 kts | 307° |
| 2026-04-25 11:51 | 56.75460 | 10.78104 | 13911 ft | 292 kts | 307° |
| 2026-04-25 11:51 | 56.76749 | 10.75262 | 13465 ft | 289 kts | 308° |
| 2026-04-25 11:51 | 56.78048 | 10.72611 | 13356 ft | 270 kts | 309° |
| 2026-04-25 11:51 | 56.79277 | 10.70184 | 13209 ft | 251 kts | 309° |
| 2026-04-25 11:52 | 56.80426 | 10.67926 | 13055 ft | 235 kts | 309° |
| 2026-04-25 11:52 | 56.81520 | 10.65760 | 12593 ft | 231 kts | 309° |
| 2026-04-25 11:52 | 56.82607 | 10.63596 | 12006 ft | 232 kts | 309° |
| 2026-04-25 11:52 | 56.83695 | 10.61422 | 11464 ft | 232 kts | 309° |
| 2026-04-25 11:53 | 56.84781 | 10.59248 | 10943 ft | 232 kts | 309° |
| 2026-04-25 11:53 | 56.85866 | 10.57072 | 10415 ft | 232 kts | 310° |
| 2026-04-25 11:53 | 56.86952 | 10.54890 | 9912 ft | 232 kts | 310° |
| 2026-04-25 11:53 | 56.88036 | 10.52708 | 9380 ft | 232 kts | 310° |
| 2026-04-25 11:54 | 56.89090 | 10.50586 | 9233 ft | 216 kts | 310° |
| 2026-04-25 11:54 | 56.90056 | 10.48642 | 9138 ft | 196 kts | 310° |
| 2026-04-25 11:54 | 56.91786 | 10.45149 | 8358 ft | 183 kts | 310° |
| 2026-04-25 11:55 | 56.92635 | 10.43428 | 7764 ft | 182 kts | 310° |
| 2026-04-25 11:55 | 56.93485 | 10.41706 | 7199 ft | 182 kts | 310° |
| 2026-04-25 11:55 | 56.94329 | 10.39995 | 6654 ft | 180 kts | 310° |
| 2026-04-25 11:55 | 56.95157 | 10.38314 | 6115 ft | 181 kts | 311° |
| 2026-04-25 11:56 | 56.96001 | 10.36599 | 5560 ft | 179 kts | 312° |
| 2026-04-25 11:56 | 56.96846 | 10.34881 | 4982 ft | 179 kts | 313° |
| 2026-04-25 11:56 | 56.97687 | 10.33173 | 4417 ft | 180 kts | 313° |
| 2026-04-25 11:56 | 56.98507 | 10.31504 | 4178 ft | 172 kts | 313° |
| 2026-04-25 11:57 | 56.99313 | 10.29864 | 4050 ft | 175 kts | 313° |
| 2026-04-25 11:57 | 57.00141 | 10.28180 | 3965 ft | 179 kts | 313° |
| 2026-04-25 11:57 | 57.00974 | 10.26483 | 3865 ft | 180 kts | 313° |
| 2026-04-25 11:57 | 57.01808 | 10.24778 | 3779 ft | 180 kts | 313° |
| 2026-04-25 11:58 | 57.02640 | 10.23082 | 3697 ft | 182 kts | 313° |
| 2026-04-25 11:58 | 57.03486 | 10.21353 | 3611 ft | 181 kts | 313° |
| 2026-04-25 11:58 | 57.04312 | 10.19662 | 3519 ft | 176 kts | 313° |
| 2026-04-25 11:58 | 57.05138 | 10.17974 | 3322 ft | 178 kts | 313° |
| 2026-04-25 11:59 | 57.05952 | 10.16309 | 3245 ft | 176 kts | 313° |
| 2026-04-25 11:59 | 57.06776 | 10.14622 | 3024 ft | 179 kts | 313° |
| 2026-04-25 11:59 | 57.07613 | 10.12903 | 2710 ft | 178 kts | 311° |
| 2026-04-25 12:00 | 57.09214 | 10.09619 | 2329 ft | 169 kts | 311° |
| 2026-04-25 12:00 | 57.09977 | 10.08052 | 2139 ft | 156 kts | 312° |
| 2026-04-25 12:00 | 57.10576 | 10.05092 | 1912 ft | 105 kts | 282° |
| 2026-04-25 12:01 | 57.10579 | 10.03832 | 1781 ft | 96 kts | 279° |
| 2026-04-25 12:01 | 57.10568 | 10.02600 | 1657 ft | 95 kts | 278° |
| 2026-04-25 12:01 | 57.10520 | 10.01379 | 1525 ft | 96 kts | 275° |
| 2026-04-25 12:01 | 57.10454 | 10.00154 | 1401 ft | 96 kts | 274° |
| 2026-04-25 12:02 | 57.10300 | 9.97696 | 1143 ft | 99 kts | 273° |
| 2026-04-25 12:02 | 57.10219 | 9.96435 | 1018 ft | 99 kts | 274° |
| 2026-04-25 12:02 | 57.10139 | 9.95178 | 879 ft | 97 kts | 273° |
| 2026-04-25 12:03 | 57.10059 | 9.93957 | 737 ft | 96 kts | 272° |
| 2026-04-25 12:03 | 57.09974 | 9.92736 | 643 ft | 96 kts | 270° |
| 2026-04-25 12:03 | 57.09879 | 9.91521 | 472 ft | 96 kts | 270° |
| 2026-04-25 12:03 | 57.09810 | 9.90316 | 324 ft | 95 kts | 270° |
| 2026-04-25 12:04 | 57.09733 | 9.89077 | 199 ft | 100 kts | 271° |
| 2026-04-25 12:04 | 57.09655 | 9.87786 | 53 ft | 102 kts | 268° |
| 2026-04-25 12:04 | 57.09580 | 9.86547 | 20 ft | 82 kts | 265° |
| 2026-04-25 12:04 | 57.09533 | 9.85850 | 15 ft | 30 kts | 262° |
| 2026-04-25 12:05 | 57.09498 | 9.85691 | 15 ft | 3 kts | 199° |
| 2026-04-25 12:05 | 57.09480 | 9.85702 | 15 ft | 3 kts | 142° |
| 2026-04-25 12:05 | 57.09374 | 9.85849 | 17 ft | 62 kts | 143° |
| 2026-04-25 12:05 | 57.08811 | 9.86650 | 17 ft | 87 kts | 142° |
| 2026-04-25 12:06 | 57.08629 | 9.86926 | 18 ft | 20 kts | 134° |
| 2026-04-25 12:06 | 57.08603 | 9.86981 | 18 ft | 2 kts | 101° |
| 2026-04-25 12:06 | 57.08615 | 9.87007 | 18 ft | 3 kts | 37° |
| 2026-04-25 12:06 | 57.08640 | 9.87061 | 18 ft | 5 kts | 54° |
| 2026-04-25 12:07 | 57.08640 | 9.87062 | 18 ft | 0 kts | 54° |